sensor_id;sensor_type;location;lat;lon;timestamp;P1;durP1;ratioP1;P2;durP2;ratioP2
35576;SDS011;21680;52.400;16.920;2022-08-21T00:00:04;18.77;;;13.25;;
35576;SDS011;21680;52.400;16.920;2022-08-21T00:02:36;21.68;;;14.23;;
35576;SDS011;21680;52.400;16.920;2022-08-21T00:05:03;21.10;;;13.80;;
35576;SDS011;21680;52.400;16.920;2022-08-21T00:07:31;19.37;;;12.88;;
35576;SDS011;21680;52.400;16.920;2022-08-21T00:09:57;20.12;;;12.98;;
35576;SDS011;21680;52.400;16.920;2022-08-21T00:12:23;17.70;;;12.95;;
35576;SDS011;21680;52.400;16.920;2022-08-21T00:14:50;23.75;;;14.50;;
35576;SDS011;21680;52.400;16.920;2022-08-21T00:17:16;19.57;;;13.53;;
35576;SDS011;21680;52.400;16.920;2022-08-21T00:19:42;20.27;;;13.80;;
35576;SDS011;21680;52.400;16.920;2022-08-21T00:22:08;21.60;;;13.80;;
35576;SDS011;21680;52.400;16.920;2022-08-21T00:24:34;21.82;;;12.95;;
35576;SDS011;21680;52.400;16.920;2022-08-21T00:27:00;16.23;;;12.35;;
35576;SDS011;21680;52.400;16.920;2022-08-21T00:29:25;26.97;;;14.55;;
35576;SDS011;21680;52.400;16.920;2022-08-21T00:31:51;19.40;;;13.18;;
35576;SDS011;21680;52.400;16.920;2022-08-21T00:34:18;21.25;;;13.55;;
35576;SDS011;21680;52.400;16.920;2022-08-21T00:36:44;18.85;;;12.70;;
35576;SDS011;21680;52.400;16.920;2022-08-21T00:39:10;17.27;;;13.70;;
35576;SDS011;21680;52.400;16.920;2022-08-21T00:41:37;23.35;;;13.75;;
35576;SDS011;21680;52.400;16.920;2022-08-21T00:44:05;18.80;;;13.10;;
35576;SDS011;21680;52.400;16.920;2022-08-21T00:46:34;19.75;;;13.45;;
35576;SDS011;21680;52.400;16.920;2022-08-21T00:49:00;25.23;;;13.43;;
35576;SDS011;21680;52.400;16.920;2022-08-21T00:51:35;21.80;;;12.43;;
35576;SDS011;21680;52.400;16.920;2022-08-21T00:54:13;17.37;;;12.63;;
35576;SDS011;21680;52.400;16.920;2022-08-21T00:56:40;25.23;;;13.62;;
35576;SDS011;21680;52.400;16.920;2022-08-21T00:59:06;16.12;;;10.90;;
35576;SDS011;21680;52.400;16.920;2022-08-21T01:01:32;21.35;;;12.85;;
35576;SDS011;21680;52.400;16.920;2022-08-21T01:03:59;17.82;;;12.65;;
35576;SDS011;21680;52.400;16.920;2022-08-21T01:06:25;16.05;;;12.15;;
35576;SDS011;21680;52.400;16.920;2022-08-21T01:08:51;23.60;;;12.47;;
35576;SDS011;21680;52.400;16.920;2022-08-21T01:11:17;22.60;;;12.55;;
35576;SDS011;21680;52.400;16.920;2022-08-21T01:13:43;24.90;;;13.60;;
35576;SDS011;21680;52.400;16.920;2022-08-21T01:16:11;22.85;;;13.03;;
35576;SDS011;21680;52.400;16.920;2022-08-21T01:18:39;22.45;;;13.60;;
35576;SDS011;21680;52.400;16.920;2022-08-21T01:21:06;17.95;;;13.00;;
35576;SDS011;21680;52.400;16.920;2022-08-21T01:23:38;20.15;;;13.32;;
35576;SDS011;21680;52.400;16.920;2022-08-21T01:26:07;17.57;;;12.73;;
35576;SDS011;21680;52.400;16.920;2022-08-21T01:28:35;25.48;;;13.60;;
35576;SDS011;21680;52.400;16.920;2022-08-21T01:31:17;21.82;;;15.23;;
35576;SDS011;21680;52.400;16.920;2022-08-21T01:33:47;22.82;;;15.68;;
35576;SDS011;21680;52.400;16.920;2022-08-21T01:36:12;24.10;;;16.55;;
35576;SDS011;21680;52.400;16.920;2022-08-21T01:38:38;26.37;;;16.62;;
35576;SDS011;21680;52.400;16.920;2022-08-21T01:41:04;29.80;;;18.82;;
35576;SDS011;21680;52.400;16.920;2022-08-21T01:43:30;28.30;;;16.73;;
35576;SDS011;21680;52.400;16.920;2022-08-21T01:45:56;27.30;;;16.40;;
35576;SDS011;21680;52.400;16.920;2022-08-21T01:48:22;28.38;;;16.00;;
35576;SDS011;21680;52.400;16.920;2022-08-21T01:50:48;31.80;;;16.70;;
35576;SDS011;21680;52.400;16.920;2022-08-21T01:53:14;26.35;;;16.35;;
35576;SDS011;21680;52.400;16.920;2022-08-21T01:55:41;25.40;;;16.30;;
35576;SDS011;21680;52.400;16.920;2022-08-21T01:58:08;23.90;;;16.00;;
35576;SDS011;21680;52.400;16.920;2022-08-21T02:00:35;27.13;;;17.10;;
35576;SDS011;21680;52.400;16.920;2022-08-21T02:03:01;21.25;;;15.20;;
35576;SDS011;21680;52.400;16.920;2022-08-21T02:05:26;19.25;;;14.15;;
35576;SDS011;21680;52.400;16.920;2022-08-21T02:07:53;22.30;;;15.90;;
35576;SDS011;21680;52.400;16.920;2022-08-21T02:10:22;32.85;;;15.45;;
35576;SDS011;21680;52.400;16.920;2022-08-21T02:12:52;24.35;;;15.55;;
35576;SDS011;21680;52.400;16.920;2022-08-21T02:15:18;22.90;;;15.35;;
35576;SDS011;21680;52.400;16.920;2022-08-21T02:17:46;21.00;;;14.53;;
35576;SDS011;21680;52.400;16.920;2022-08-21T02:22:51;22.07;;;14.70;;
35576;SDS011;21680;52.400;16.920;2022-08-21T02:25:19;26.45;;;14.90;;
35576;SDS011;21680;52.400;16.920;2022-08-21T02:27:47;19.73;;;14.38;;
35576;SDS011;21680;52.400;16.920;2022-08-21T02:30:16;19.07;;;14.75;;
35576;SDS011;21680;52.400;16.920;2022-08-21T02:32:48;21.20;;;13.20;;
35576;SDS011;21680;52.400;16.920;2022-08-21T02:35:14;16.45;;;11.83;;
35576;SDS011;21680;52.400;16.920;2022-08-21T02:37:47;18.55;;;12.47;;
35576;SDS011;21680;52.400;16.920;2022-08-21T02:40:18;16.75;;;12.15;;
35576;SDS011;21680;52.400;16.920;2022-08-21T02:42:47;19.42;;;11.93;;
35576;SDS011;21680;52.400;16.920;2022-08-21T02:45:13;15.83;;;11.90;;
35576;SDS011;21680;52.400;16.920;2022-08-21T02:47:46;16.95;;;11.68;;
35576;SDS011;21680;52.400;16.920;2022-08-21T02:50:24;19.17;;;12.07;;
35576;SDS011;21680;52.400;16.920;2022-08-21T02:52:52;15.68;;;11.10;;
35576;SDS011;21680;52.400;16.920;2022-08-21T02:55:20;14.03;;;10.20;;
35576;SDS011;21680;52.400;16.920;2022-08-21T02:57:48;15.88;;;10.58;;
35576;SDS011;21680;52.400;16.920;2022-08-21T03:00:14;14.40;;;10.75;;
35576;SDS011;21680;52.400;16.920;2022-08-21T03:02:41;13.80;;;10.18;;
35576;SDS011;21680;52.400;16.920;2022-08-21T03:05:09;15.48;;;10.00;;
35576;SDS011;21680;52.400;16.920;2022-08-21T03:07:37;16.67;;;11.12;;
35576;SDS011;21680;52.400;16.920;2022-08-21T03:10:04;14.05;;;10.48;;
35576;SDS011;21680;52.400;16.920;2022-08-21T03:12:31;13.60;;;10.60;;
35576;SDS011;21680;52.400;16.920;2022-08-21T03:14:57;15.88;;;11.63;;
35576;SDS011;21680;52.400;16.920;2022-08-21T03:17:24;16.50;;;10.25;;
35576;SDS011;21680;52.400;16.920;2022-08-21T03:19:50;14.98;;;10.78;;
35576;SDS011;21680;52.400;16.920;2022-08-21T03:22:16;12.63;;;10.15;;
35576;SDS011;21680;52.400;16.920;2022-08-21T03:24:42;11.28;;;9.45;;
35576;SDS011;21680;52.400;16.920;2022-08-21T03:27:11;13.68;;;10.13;;
35576;SDS011;21680;52.400;16.920;2022-08-21T03:29:39;15.88;;;9.18;;
35576;SDS011;21680;52.400;16.920;2022-08-21T03:32:06;12.03;;;9.68;;
35576;SDS011;21680;52.400;16.920;2022-08-21T03:34:35;12.28;;;10.10;;
35576;SDS011;21680;52.400;16.920;2022-08-21T03:37:03;16.95;;;9.40;;
35576;SDS011;21680;52.400;16.920;2022-08-21T03:39:31;14.30;;;8.70;;
35576;SDS011;21680;52.400;16.920;2022-08-21T03:41:57;9.03;;;7.83;;
35576;SDS011;21680;52.400;16.920;2022-08-21T03:44:23;9.23;;;7.85;;
35576;SDS011;21680;52.400;16.920;2022-08-21T03:46:49;9.10;;;7.58;;
35576;SDS011;21680;52.400;16.920;2022-08-21T03:49:15;10.35;;;7.55;;
35576;SDS011;21680;52.400;16.920;2022-08-21T03:51:41;9.83;;;7.78;;
35576;SDS011;21680;52.400;16.920;2022-08-21T03:54:06;9.23;;;7.97;;
35576;SDS011;21680;52.400;16.920;2022-08-21T03:56:32;11.97;;;7.55;;
35576;SDS011;21680;52.400;16.920;2022-08-21T03:58:58;18.73;;;7.92;;
35576;SDS011;21680;52.400;16.920;2022-08-21T04:01:24;14.30;;;7.45;;
35576;SDS011;21680;52.400;16.920;2022-08-21T04:03:50;8.35;;;6.40;;
35576;SDS011;21680;52.400;16.920;2022-08-21T04:06:16;7.42;;;6.45;;
35576;SDS011;21680;52.400;16.920;2022-08-21T04:08:43;10.05;;;6.15;;
35576;SDS011;21680;52.400;16.920;2022-08-21T04:11:09;12.28;;;6.80;;
35576;SDS011;21680;52.400;16.920;2022-08-21T04:13:37;8.80;;;6.25;;
35576;SDS011;21680;52.400;16.920;2022-08-21T04:16:04;13.25;;;7.10;;
35576;SDS011;21680;52.400;16.920;2022-08-21T04:18:31;14.05;;;6.30;;
35576;SDS011;21680;52.400;16.920;2022-08-21T04:20:57;12.98;;;6.20;;
35576;SDS011;21680;52.400;16.920;2022-08-21T04:23:24;7.83;;;5.53;;
35576;SDS011;21680;52.400;16.920;2022-08-21T04:25:51;6.05;;;5.42;;
35576;SDS011;21680;52.400;16.920;2022-08-21T04:28:24;15.45;;;5.65;;
35576;SDS011;21680;52.400;16.920;2022-08-21T04:30:53;13.58;;;5.62;;
35576;SDS011;21680;52.400;16.920;2022-08-21T04:33:20;12.85;;;5.62;;
35576;SDS011;21680;52.400;16.920;2022-08-21T04:35:47;8.80;;;4.95;;
35576;SDS011;21680;52.400;16.920;2022-08-21T04:38:14;7.92;;;4.75;;
35576;SDS011;21680;52.400;16.920;2022-08-21T04:40:40;12.68;;;4.83;;
35576;SDS011;21680;52.400;16.920;2022-08-21T04:43:07;8.00;;;5.35;;
35576;SDS011;21680;52.400;16.920;2022-08-21T04:45:36;7.28;;;4.62;;
35576;SDS011;21680;52.400;16.920;2022-08-21T04:48:07;5.62;;;4.08;;
35576;SDS011;21680;52.400;16.920;2022-08-21T04:50:37;5.72;;;4.97;;
35576;SDS011;21680;52.400;16.920;2022-08-21T04:53:20;6.30;;;4.92;;
35576;SDS011;21680;52.400;16.920;2022-08-21T04:56:19;6.55;;;4.92;;
35576;SDS011;21680;52.400;16.920;2022-08-21T04:58:49;7.53;;;5.10;;
35576;SDS011;21680;52.400;16.920;2022-08-21T05:01:20;7.85;;;5.60;;
35576;SDS011;21680;52.400;16.920;2022-08-21T05:03:50;6.12;;;5.12;;
35576;SDS011;21680;52.400;16.920;2022-08-21T05:06:20;64.55;;;6.90;;
35576;SDS011;21680;52.400;16.920;2022-08-21T05:08:49;8.35;;;5.10;;
35576;SDS011;21680;52.400;16.920;2022-08-21T05:11:18;10.58;;;5.72;;
35576;SDS011;21680;52.400;16.920;2022-08-21T05:13:45;13.32;;;5.80;;
35576;SDS011;21680;52.400;16.920;2022-08-21T05:16:12;12.00;;;5.62;;
35576;SDS011;21680;52.400;16.920;2022-08-21T05:18:38;7.28;;;5.37;;
35576;SDS011;21680;52.400;16.920;2022-08-21T05:21:04;9.38;;;5.85;;
35576;SDS011;21680;52.400;16.920;2022-08-21T05:23:30;7.00;;;5.40;;
35576;SDS011;21680;52.400;16.920;2022-08-21T05:25:56;14.40;;;5.42;;
35576;SDS011;21680;52.400;16.920;2022-08-21T05:28:22;6.00;;;5.25;;
35576;SDS011;21680;52.400;16.920;2022-08-21T05:30:49;8.58;;;4.72;;
35576;SDS011;21680;52.400;16.920;2022-08-21T05:33:15;9.65;;;5.33;;
35576;SDS011;21680;52.400;16.920;2022-08-21T05:35:41;10.28;;;5.30;;
35576;SDS011;21680;52.400;16.920;2022-08-21T05:38:07;6.00;;;5.05;;
35576;SDS011;21680;52.400;16.920;2022-08-21T05:40:33;13.00;;;5.50;;
35576;SDS011;21680;52.400;16.920;2022-08-21T05:42:59;12.18;;;6.28;;
35576;SDS011;21680;52.400;16.920;2022-08-21T05:45:28;14.93;;;6.67;;
35576;SDS011;21680;52.400;16.920;2022-08-21T05:47:57;9.00;;;6.42;;
35576;SDS011;21680;52.400;16.920;2022-08-21T05:50:32;15.08;;;6.12;;
35576;SDS011;21680;52.400;16.920;2022-08-21T05:52:58;10.03;;;5.78;;
35576;SDS011;21680;52.400;16.920;2022-08-21T05:55:24;14.98;;;7.25;;
35576;SDS011;21680;52.400;16.920;2022-08-21T05:57:50;12.98;;;7.45;;
35576;SDS011;21680;52.400;16.920;2022-08-21T06:00:16;11.53;;;7.47;;
35576;SDS011;21680;52.400;16.920;2022-08-21T06:02:42;17.85;;;6.60;;
35576;SDS011;21680;52.400;16.920;2022-08-21T06:05:08;16.02;;;8.28;;
35576;SDS011;21680;52.400;16.920;2022-08-21T06:07:34;14.80;;;8.30;;
35576;SDS011;21680;52.400;16.920;2022-08-21T06:10:00;11.28;;;8.45;;
35576;SDS011;21680;52.400;16.920;2022-08-21T06:12:26;10.78;;;7.55;;
35576;SDS011;21680;52.400;16.920;2022-08-21T06:14:52;14.80;;;7.50;;
35576;SDS011;21680;52.400;16.920;2022-08-21T06:17:18;10.50;;;7.67;;
35576;SDS011;21680;52.400;16.920;2022-08-21T06:19:45;12.68;;;7.37;;
35576;SDS011;21680;52.400;16.920;2022-08-21T06:22:12;9.05;;;7.67;;
35576;SDS011;21680;52.400;16.920;2022-08-21T06:24:38;13.25;;;7.08;;
35576;SDS011;21680;52.400;16.920;2022-08-21T06:27:09;11.57;;;8.05;;
35576;SDS011;21680;52.400;16.920;2022-08-21T06:29:32;11.85;;;8.00;;
35576;SDS011;21680;52.400;16.920;2022-08-21T06:32:00;16.82;;;8.00;;
35576;SDS011;21680;52.400;16.920;2022-08-21T06:34:27;23.18;;;8.85;;
35576;SDS011;21680;52.400;16.920;2022-08-21T06:36:53;13.18;;;8.35;;
35576;SDS011;21680;52.400;16.920;2022-08-21T06:39:18;16.23;;;7.85;;
35576;SDS011;21680;52.400;16.920;2022-08-21T06:41:44;9.03;;;7.55;;
35576;SDS011;21680;52.400;16.920;2022-08-21T06:44:10;11.70;;;8.50;;
35576;SDS011;21680;52.400;16.920;2022-08-21T06:46:36;13.15;;;8.43;;
35576;SDS011;21680;52.400;16.920;2022-08-21T06:49:03;16.57;;;9.43;;
35576;SDS011;21680;52.400;16.920;2022-08-21T06:51:29;12.95;;;8.60;;
35576;SDS011;21680;52.400;16.920;2022-08-21T06:53:55;17.82;;;7.62;;
35576;SDS011;21680;52.400;16.920;2022-08-21T06:56:22;16.48;;;8.28;;
35576;SDS011;21680;52.400;16.920;2022-08-21T06:58:48;14.40;;;7.72;;
35576;SDS011;21680;52.400;16.920;2022-08-21T07:01:14;14.75;;;7.45;;
35576;SDS011;21680;52.400;16.920;2022-08-21T07:03:41;15.00;;;8.10;;
35576;SDS011;21680;52.400;16.920;2022-08-21T07:06:09;25.85;;;8.63;;
35576;SDS011;21680;52.400;16.920;2022-08-21T07:08:36;13.38;;;8.53;;
35576;SDS011;21680;52.400;16.920;2022-08-21T07:11:05;20.65;;;8.68;;
35576;SDS011;21680;52.400;16.920;2022-08-21T07:13:44;23.27;;;9.08;;
35576;SDS011;21680;52.400;16.920;2022-08-21T07:16:10;13.05;;;8.63;;
35576;SDS011;21680;52.400;16.920;2022-08-21T07:18:37;16.65;;;8.88;;
35576;SDS011;21680;52.400;16.920;2022-08-21T07:21:03;19.17;;;9.40;;
35576;SDS011;21680;52.400;16.920;2022-08-21T07:23:33;18.37;;;8.95;;
35576;SDS011;21680;52.400;16.920;2022-08-21T07:26:03;22.42;;;8.75;;
35576;SDS011;21680;52.400;16.920;2022-08-21T07:28:29;17.65;;;7.90;;
35576;SDS011;21680;52.400;16.920;2022-08-21T07:30:56;33.02;;;9.35;;
35576;SDS011;21680;52.400;16.920;2022-08-21T07:33:26;17.65;;;7.90;;
35576;SDS011;21680;52.400;16.920;2022-08-21T07:35:55;19.60;;;8.98;;
35576;SDS011;21680;52.400;16.920;2022-08-21T07:38:21;37.55;;;9.58;;
35576;SDS011;21680;52.400;16.920;2022-08-21T07:40:48;16.05;;;9.10;;
35576;SDS011;21680;52.400;16.920;2022-08-21T07:43:16;18.40;;;8.38;;
35576;SDS011;21680;52.400;16.920;2022-08-21T07:45:43;23.47;;;8.70;;
35576;SDS011;21680;52.400;16.920;2022-08-21T07:48:10;14.38;;;8.65;;
35576;SDS011;21680;52.400;16.920;2022-08-21T07:50:37;13.98;;;8.20;;
35576;SDS011;21680;52.400;16.920;2022-08-21T07:53:04;25.02;;;8.60;;
35576;SDS011;21680;52.400;16.920;2022-08-21T07:55:30;13.35;;;8.40;;
35576;SDS011;21680;52.400;16.920;2022-08-21T07:57:56;15.38;;;7.55;;
35576;SDS011;21680;52.400;16.920;2022-08-21T08:00:23;18.45;;;9.55;;
35576;SDS011;21680;52.400;16.920;2022-08-21T08:02:51;18.05;;;8.43;;
35576;SDS011;21680;52.400;16.920;2022-08-21T08:05:20;19.70;;;8.30;;
35576;SDS011;21680;52.400;16.920;2022-08-21T08:07:50;17.77;;;8.20;;
35576;SDS011;21680;52.400;16.920;2022-08-21T08:10:16;26.20;;;8.28;;
35576;SDS011;21680;52.400;16.920;2022-08-21T08:12:44;14.35;;;8.33;;
35576;SDS011;21680;52.400;16.920;2022-08-21T08:15:13;17.75;;;8.53;;
35576;SDS011;21680;52.400;16.920;2022-08-21T08:17:42;15.55;;;9.13;;
35576;SDS011;21680;52.400;16.920;2022-08-21T08:20:09;25.48;;;10.30;;
35576;SDS011;21680;52.400;16.920;2022-08-21T08:22:38;18.65;;;9.05;;
35576;SDS011;21680;52.400;16.920;2022-08-21T08:25:06;26.12;;;8.78;;
35576;SDS011;21680;52.400;16.920;2022-08-21T08:27:33;24.15;;;10.25;;
35576;SDS011;21680;52.400;16.920;2022-08-21T08:30:00;15.35;;;9.48;;
35576;SDS011;21680;52.400;16.920;2022-08-21T08:32:26;13.95;;;9.60;;
35576;SDS011;21680;52.400;16.920;2022-08-21T08:34:52;16.82;;;10.08;;
35576;SDS011;21680;52.400;16.920;2022-08-21T08:37:18;24.95;;;10.50;;
35576;SDS011;21680;52.400;16.920;2022-08-21T08:39:45;22.22;;;10.90;;
35576;SDS011;21680;52.400;16.920;2022-08-21T08:42:25;20.65;;;10.30;;
35576;SDS011;21680;52.400;16.920;2022-08-21T08:45:08;28.10;;;10.78;;
35576;SDS011;21680;52.400;16.920;2022-08-21T08:47:37;28.67;;;11.30;;
35576;SDS011;21680;52.400;16.920;2022-08-21T08:50:08;14.83;;;11.20;;
35576;SDS011;21680;52.400;16.920;2022-08-21T08:52:48;26.42;;;11.90;;
35576;SDS011;21680;52.400;16.920;2022-08-21T08:55:17;20.92;;;12.35;;
35576;SDS011;21680;52.400;16.920;2022-08-21T08:57:47;20.88;;;11.75;;
35576;SDS011;21680;52.400;16.920;2022-08-21T09:00:17;20.37;;;11.55;;
35576;SDS011;21680;52.400;16.920;2022-08-21T09:02:46;33.67;;;12.80;;
35576;SDS011;21680;52.400;16.920;2022-08-21T09:05:19;19.20;;;11.85;;
35576;SDS011;21680;52.400;16.920;2022-08-21T09:08:11;27.45;;;11.57;;
35576;SDS011;21680;52.400;16.920;2022-08-21T09:11:02;18.52;;;12.07;;
35576;SDS011;21680;52.400;16.920;2022-08-21T09:20:13;21.30;;;12.03;;
35576;SDS011;21680;52.400;16.920;2022-08-21T09:25:54;16.75;;;11.15;;
35576;SDS011;21680;52.400;16.920;2022-08-21T09:28:34;16.85;;;11.78;;
35576;SDS011;21680;52.400;16.920;2022-08-21T09:31:24;36.13;;;12.37;;
35576;SDS011;21680;52.400;16.920;2022-08-21T09:33:36;20.37;;;12.23;;
35576;SDS011;21680;52.400;16.920;2022-08-21T09:36:02;25.57;;;12.25;;
35576;SDS011;21680;52.400;16.920;2022-08-21T09:38:33;24.98;;;11.08;;
35576;SDS011;21680;52.400;16.920;2022-08-21T09:41:03;25.08;;;13.13;;
35576;SDS011;21680;52.400;16.920;2022-08-21T09:43:34;25.75;;;12.03;;
35576;SDS011;21680;52.400;16.920;2022-08-21T09:46:04;20.05;;;12.20;;
35576;SDS011;21680;52.400;16.920;2022-08-21T09:48:44;17.65;;;11.90;;
35576;SDS011;21680;52.400;16.920;2022-08-21T09:51:18;27.20;;;13.13;;
35576;SDS011;21680;52.400;16.920;2022-08-21T09:59:53;28.95;;;12.33;;
35576;SDS011;21680;52.400;16.920;2022-08-21T10:02:32;25.43;;;12.82;;
35576;SDS011;21680;52.400;16.920;2022-08-21T10:05:03;18.70;;;12.35;;
35576;SDS011;21680;52.400;16.920;2022-08-21T10:07:36;29.52;;;11.93;;
35576;SDS011;21680;52.400;16.920;2022-08-21T10:10:08;29.75;;;12.98;;
35576;SDS011;21680;52.400;16.920;2022-08-21T10:18:27;19.95;;;11.35;;
35576;SDS011;21680;52.400;16.920;2022-08-21T10:29:57;18.15;;;12.25;;
35576;SDS011;21680;52.400;16.920;2022-08-21T10:32:37;22.70;;;11.88;;
35576;SDS011;21680;52.400;16.920;2022-08-21T10:35:42;23.35;;;12.28;;
35576;SDS011;21680;52.400;16.920;2022-08-21T10:41:42;23.35;;;10.68;;
35576;SDS011;21680;52.400;16.920;2022-08-21T10:45:20;13.48;;;10.28;;
35576;SDS011;21680;52.400;16.920;2022-08-21T10:50:17;11.38;;;10.20;;
35576;SDS011;21680;52.400;16.920;2022-08-21T10:52:44;19.10;;;9.48;;
35576;SDS011;21680;52.400;16.920;2022-08-21T10:55:30;18.62;;;10.13;;
35576;SDS011;21680;52.400;16.920;2022-08-21T10:58:09;11.85;;;9.40;;
35576;SDS011;21680;52.400;16.920;2022-08-21T11:00:46;13.28;;;9.23;;
35576;SDS011;21680;52.400;16.920;2022-08-21T11:06:08;15.93;;;10.28;;
35576;SDS011;21680;52.400;16.920;2022-08-21T11:08:43;20.50;;;10.08;;
35576;SDS011;21680;52.400;16.920;2022-08-21T11:11:20;14.80;;;9.78;;
35576;SDS011;21680;52.400;16.920;2022-08-21T11:14:04;14.93;;;11.28;;
35576;SDS011;21680;52.400;16.920;2022-08-21T11:16:41;17.62;;;9.18;;
35576;SDS011;21680;52.400;16.920;2022-08-21T11:19:21;16.62;;;7.80;;
35576;SDS011;21680;52.400;16.920;2022-08-21T11:22:03;12.63;;;8.30;;
35576;SDS011;21680;52.400;16.920;2022-08-21T11:24:51;10.30;;;8.65;;
35576;SDS011;21680;52.400;16.920;2022-08-21T11:27:45;17.92;;;8.65;;
35576;SDS011;21680;52.400;16.920;2022-08-21T11:30:21;14.25;;;9.03;;
35576;SDS011;21680;52.400;16.920;2022-08-21T11:35:30;12.95;;;8.50;;
35576;SDS011;21680;52.400;16.920;2022-08-21T11:38:27;11.03;;;8.48;;
35576;SDS011;21680;52.400;16.920;2022-08-21T11:49:42;8.70;;;7.72;;
35576;SDS011;21680;52.400;16.920;2022-08-21T11:52:19;13.05;;;7.45;;
35576;SDS011;21680;52.400;16.920;2022-08-21T11:55:03;10.93;;;7.37;;
35576;SDS011;21680;52.400;16.920;2022-08-21T12:00:30;15.80;;;7.90;;
35576;SDS011;21680;52.400;16.920;2022-08-21T12:03:28;9.48;;;7.00;;
35576;SDS011;21680;52.400;16.920;2022-08-21T12:05:44;15.23;;;7.65;;
35576;SDS011;21680;52.400;16.920;2022-08-21T12:08:33;10.80;;;7.22;;
35576;SDS011;21680;52.400;16.920;2022-08-21T12:11:07;10.35;;;6.47;;
35576;SDS011;21680;52.400;16.920;2022-08-21T12:14:00;11.28;;;6.95;;
35576;SDS011;21680;52.400;16.920;2022-08-21T12:16:33;15.90;;;7.03;;
35576;SDS011;21680;52.400;16.920;2022-08-21T12:19:13;13.62;;;7.45;;
35576;SDS011;21680;52.400;16.920;2022-08-21T12:24:49;10.88;;;6.60;;
35576;SDS011;21680;52.400;16.920;2022-08-21T12:27:29;8.73;;;5.78;;
35576;SDS011;21680;52.400;16.920;2022-08-21T12:30:04;10.30;;;5.62;;
35576;SDS011;21680;52.400;16.920;2022-08-21T12:35:16;12.03;;;5.80;;
35576;SDS011;21680;52.400;16.920;2022-08-21T12:38:00;8.93;;;5.17;;
35576;SDS011;21680;52.400;16.920;2022-08-21T12:40:43;14.58;;;5.15;;
35576;SDS011;21680;52.400;16.920;2022-08-21T12:43:32;7.33;;;4.62;;
35576;SDS011;21680;52.400;16.920;2022-08-21T12:46:07;10.38;;;4.72;;
35576;SDS011;21680;52.400;16.920;2022-08-21T12:48:51;7.42;;;4.10;;
35576;SDS011;21680;52.400;16.920;2022-08-21T12:51:32;8.70;;;3.60;;
35576;SDS011;21680;52.400;16.920;2022-08-21T12:54:08;11.18;;;4.33;;
35576;SDS011;21680;52.400;16.920;2022-08-21T12:56:34;6.35;;;3.92;;
35576;SDS011;21680;52.400;16.920;2022-08-21T12:59:03;6.85;;;4.12;;
35576;SDS011;21680;52.400;16.920;2022-08-21T13:01:35;19.75;;;4.72;;
35576;SDS011;21680;52.400;16.920;2022-08-21T13:04:07;5.53;;;3.95;;
35576;SDS011;21680;52.400;16.920;2022-08-21T13:09:08;10.50;;;3.90;;
35576;SDS011;21680;52.400;16.920;2022-08-21T13:11:41;10.10;;;4.17;;
35576;SDS011;21680;52.400;16.920;2022-08-21T13:14:13;11.00;;;4.05;;
35576;SDS011;21680;52.400;16.920;2022-08-21T13:16:44;5.78;;;3.92;;
35576;SDS011;21680;52.400;16.920;2022-08-21T13:19:11;8.60;;;3.92;;
35576;SDS011;21680;52.400;16.920;2022-08-21T13:21:42;18.62;;;4.28;;
35576;SDS011;21680;52.400;16.920;2022-08-21T13:24:20;15.25;;;4.87;;
35576;SDS011;21680;52.400;16.920;2022-08-21T13:26:52;11.73;;;3.83;;
35576;SDS011;21680;52.400;16.920;2022-08-21T13:29:21;6.83;;;4.67;;
35576;SDS011;21680;52.400;16.920;2022-08-21T13:31:52;12.85;;;4.62;;
35576;SDS011;21680;52.400;16.920;2022-08-21T13:34:26;9.98;;;4.55;;
35576;SDS011;21680;52.400;16.920;2022-08-21T13:36:59;11.40;;;4.50;;
35576;SDS011;21680;52.400;16.920;2022-08-21T13:39:31;9.70;;;4.30;;
35576;SDS011;21680;52.400;16.920;2022-08-21T13:41:59;5.25;;;3.75;;
35576;SDS011;21680;52.400;16.920;2022-08-21T13:44:34;7.17;;;4.78;;
35576;SDS011;21680;52.400;16.920;2022-08-21T13:47:09;15.65;;;8.45;;
35576;SDS011;21680;52.400;16.920;2022-08-21T13:49:49;10.43;;;3.37;;
35576;SDS011;21680;52.400;16.920;2022-08-21T13:52:19;5.00;;;2.70;;
35576;SDS011;21680;52.400;16.920;2022-08-21T13:54:55;8.10;;;3.12;;
35576;SDS011;21680;52.400;16.920;2022-08-21T13:57:29;4.72;;;3.17;;
35576;SDS011;21680;52.400;16.920;2022-08-21T14:00:18;7.58;;;3.17;;
35576;SDS011;21680;52.400;16.920;2022-08-21T14:02:51;13.53;;;3.40;;
35576;SDS011;21680;52.400;16.920;2022-08-21T14:05:25;3.20;;;2.90;;
35576;SDS011;21680;52.400;16.920;2022-08-21T14:07:58;2.77;;;2.58;;
35576;SDS011;21680;52.400;16.920;2022-08-21T14:10:27;5.53;;;2.83;;
35576;SDS011;21680;52.400;16.920;2022-08-21T14:12:54;16.10;;;3.60;;
35576;SDS011;21680;52.400;16.920;2022-08-21T14:15:30;5.42;;;3.25;;
35576;SDS011;21680;52.400;16.920;2022-08-21T14:20:41;8.28;;;3.62;;
35576;SDS011;21680;52.400;16.920;2022-08-21T14:23:07;5.12;;;3.35;;
35576;SDS011;21680;52.400;16.920;2022-08-21T14:25:40;10.40;;;3.75;;
35576;SDS011;21680;52.400;16.920;2022-08-21T14:28:18;11.80;;;3.58;;
35576;SDS011;21680;52.400;16.920;2022-08-21T14:30:51;9.68;;;3.52;;
35576;SDS011;21680;52.400;16.920;2022-08-21T14:33:21;5.08;;;3.67;;
35576;SDS011;21680;52.400;16.920;2022-08-21T14:35:55;11.70;;;4.37;;
35576;SDS011;21680;52.400;16.920;2022-08-21T14:38:23;5.03;;;3.60;;
35576;SDS011;21680;52.400;16.920;2022-08-21T14:40:53;7.12;;;4.50;;
35576;SDS011;21680;52.400;16.920;2022-08-21T14:43:26;17.40;;;3.70;;
35576;SDS011;21680;52.400;16.920;2022-08-21T14:45:54;7.65;;;3.40;;
35576;SDS011;21680;52.400;16.920;2022-08-21T14:48:20;9.03;;;3.02;;
35576;SDS011;21680;52.400;16.920;2022-08-21T14:50:46;6.95;;;3.27;;
35576;SDS011;21680;52.400;16.920;2022-08-21T14:53:12;5.47;;;3.27;;
35576;SDS011;21680;52.400;16.920;2022-08-21T14:55:38;5.33;;;4.28;;
35576;SDS011;21680;52.400;16.920;2022-08-21T14:58:24;5.03;;;3.30;;
35576;SDS011;21680;52.400;16.920;2022-08-21T15:00:51;10.65;;;3.33;;
35576;SDS011;21680;52.400;16.920;2022-08-21T15:03:19;13.60;;;3.75;;
35576;SDS011;21680;52.400;16.920;2022-08-21T15:05:47;10.43;;;4.17;;
35576;SDS011;21680;52.400;16.920;2022-08-21T15:08:13;11.22;;;3.67;;
35576;SDS011;21680;52.400;16.920;2022-08-21T15:10:39;8.48;;;3.70;;
35576;SDS011;21680;52.400;16.920;2022-08-21T15:13:05;24.37;;;9.83;;
35576;SDS011;21680;52.400;16.920;2022-08-21T15:15:34;11.20;;;5.15;;
35576;SDS011;21680;52.400;16.920;2022-08-21T15:18:07;13.18;;;4.15;;
35576;SDS011;21680;52.400;16.920;2022-08-21T15:20:33;10.88;;;5.53;;
35576;SDS011;21680;52.400;16.920;2022-08-21T15:23:01;7.87;;;4.35;;
35576;SDS011;21680;52.400;16.920;2022-08-21T15:25:28;13.43;;;4.10;;
35576;SDS011;21680;52.400;16.920;2022-08-21T15:27:54;7.65;;;4.42;;
35576;SDS011;21680;52.400;16.920;2022-08-21T15:30:20;6.28;;;4.00;;
35576;SDS011;21680;52.400;16.920;2022-08-21T15:32:46;5.97;;;4.03;;
35576;SDS011;21680;52.400;16.920;2022-08-21T15:35:12;6.65;;;3.50;;
35576;SDS011;21680;52.400;16.920;2022-08-21T15:37:38;11.08;;;3.98;;
35576;SDS011;21680;52.400;16.920;2022-08-21T15:40:05;11.95;;;3.83;;
35576;SDS011;21680;52.400;16.920;2022-08-21T15:42:32;15.48;;;4.05;;